Time;durP1;ratioP1;P1;durP2;ratioP2;P2;SDS_P1;SDS_P2;PMS_P1;PMS_P2;Temp;Humidity;BMP_temperature;BMP_pressure;BME280_temperature;BME280_humidity;BME280_pressure;Samples;Min_cycle;Max_cycle;Signal;HPM_P1;HPM_P2
2021/09/12 00:01:45;;;;;;;6.82;4.47;;;;;;;14.27;100.00;99250.09;4973415;28;20513;-84
2021/09/12 00:04:11;;;;;;;8.38;4.63;;;;;;;14.23;100.00;99239.78;4969488;28;20055;-83
2021/09/12 00:06:38;;;;;;;9.48;4.20;;;;;;;14.20;100.00;99251.94;4967591;28;20051;-83
2021/09/12 00:09:07;;;;;;;6.47;4.10;;;;;;;13.99;100.00;99248.31;4972765;28;20142;-84
2021/09/12 00:11:36;;;;;;;6.80;4.25;;;;;;;14.01;100.00;99244.53;4973382;28;20058;-84
2021/09/12 00:14:03;;;;;;;12.90;4.75;;;;;;;14.07;100.00;99255.47;4972712;28;20282;-83
2021/09/12 00:16:32;;;;;;;9.30;4.22;;;;;;;14.06;100.00;99258.41;4972207;28;20133;-83
2021/09/12 00:19:03;;;;;;;7.80;4.10;;;;;;;13.85;100.00;99240.25;4972769;28;20050;-83
2021/09/12 00:21:30;;;;;;;7.03;4.18;;;;;;;14.08;100.00;99262.63;4972549;28;20054;-83
2021/09/12 00:23:57;;;;;;;6.25;4.40;;;;;;;13.86;100.00;99247.44;4982196;28;20050;-83
2021/09/12 00:26:38;;;;;;;10.27;4.20;;;;;;;13.79;100.00;99247.41;4973001;28;20101;-83
2021/09/12 00:29:10;;;;;;;7.18;3.88;;;;;;;13.87;100.00;99260.06;4972445;28;20051;-83
2021/09/12 00:31:40;;;;;;;9.95;4.45;;;;;;;13.81;100.00;99250.78;4973047;28;20062;-83
2021/09/12 00:34:08;;;;;;;4.80;4.05;;;;;;;13.80;100.00;99263.59;4973523;28;20357;-83
2021/09/12 00:36:37;;;;;;;9.00;4.38;;;;;;;13.75;100.00;99246.97;4971432;28;20077;-83
2021/09/12 00:39:29;;;;;;;6.45;4.65;;;;;;;13.71;100.00;99247.56;4972917;28;20046;-83
2021/09/12 00:41:57;;;;;;;7.90;4.63;;;;;;;13.67;100.00;99238.09;4967492;28;20046;-82
2021/09/12 00:44:29;;;;;;;6.60;4.15;;;;;;;13.51;100.00;99247.47;4971879;28;20105;-82
2021/09/12 00:47:09;;;;;;;9.98;4.05;;;;;;;13.49;100.00;99247.69;4972627;28;20059;-82
2021/09/12 00:49:38;;;;;;;6.30;4.13;;;;;;;13.50;100.00;99243.06;4972592;28;20133;-82
2021/09/12 00:55:08;;;;;;;7.55;3.90;;;;;;;13.38;100.00;99242.78;4972373;28;20250;-82
2021/09/12 00:57:39;;;;;;;7.35;4.22;;;;;;;13.45;100.00;99252.69;4972743;28;20043;-82
2021/09/12 01:00:24;;;;;;;10.02;3.90;;;;;;;13.59;100.00;99260.97;4979618;28;20039;-82
2021/09/12 01:02:57;;;;;;;11.35;4.10;;;;;;;13.49;100.00;99257.75;4972593;28;20058;-83
2021/09/12 01:05:26;;;;;;;5.75;3.95;;;;;;;13.26;100.00;99239.72;4970728;28;20050;-82
2021/09/12 01:07:53;;;;;;;6.07;4.00;;;;;;;13.21;100.00;99234.03;4988508;28;20641;-82
2021/09/12 01:10:20;;;;;;;7.50;3.80;;;;;;;13.18;100.00;99239.91;4972318;28;20057;-82
2021/09/12 01:13:10;;;;;;;6.38;3.90;;;;;;;13.22;100.00;99235.75;4972232;28;20051;-83
2021/09/12 01:15:46;;;;;;;;;;;;;;;13.34;100.00;99253.28;4977657;28;20050;-82
2021/09/12 01:18:13;;;;;;;6.35;3.67;;;;;;;13.17;100.00;99239.06;4994152;28;19929;-82
2021/09/12 01:21:02;;;;;;;5.82;4.18;;;;;;;13.28;100.00;99251.31;4975269;28;20058;-82
2021/09/12 01:23:31;;;;;;;6.40;3.77;;;;;;;13.22;100.00;99227.53;4973513;28;22798;-82
2021/09/12 01:26:00;;;;;;;7.80;4.57;;;;;;;13.31;100.00;99237.25;4979591;28;20051;-83
2021/09/12 01:28:40;;;;;;;12.93;4.85;;;;;;;13.37;100.00;99252.00;4991559;28;20050;-82
2021/09/12 01:31:07;;;;;;;6.35;4.68;;;;;;;13.14;100.00;99242.16;4982511;28;20062;-82
2021/09/12 01:33:52;;;;;;;5.97;4.07;;;;;;;13.11;100.00;99242.56;4981320;28;20054;-82
2021/09/12 01:36:19;;;;;;;5.30;4.10;;;;;;;13.19;100.00;99247.06;4983808;28;20054;-82
2021/09/12 01:38:46;;;;;;;8.00;4.50;;;;;;;13.06;100.00;99251.34;4975404;28;20105;-82
2021/09/12 01:41:36;;;;;;;5.68;4.05;;;;;;;12.88;100.00;99238.22;4974979;28;20053;-82
2021/09/12 01:44:05;;;;;;;7.93;4.72;;;;;;;13.05;100.00;99251.56;4976019;28;20051;-82
2021/09/12 01:46:35;;;;;;;10.80;5.40;;;;;;;13.01;100.00;99239.38;4974710;28;20061;-82
2021/09/12 01:49:04;;;;;;;;;;;;;;;13.11;100.00;99258.94;4976000;28;20086;-82
2021/09/12 01:51:30;;;;;;;9.57;5.10;;;;;;;13.07;100.00;99257.69;4975820;28;20378;-82
2021/09/12 01:54:05;;;;;;;9.00;4.45;;;;;;;12.84;100.00;99230.63;4975151;28;20047;-82
2021/09/12 01:56:34;;;;;;;7.47;4.35;;;;;;;12.80;100.00;99241.09;4973908;28;20491;-82
2021/09/12 01:59:01;;;;;;;5.88;4.03;;;;;;;12.85;100.00;99254.97;4976926;28;20054;-83
2021/09/12 02:01:36;;;;;;;7.72;3.97;;;;;;;12.74;100.00;99248.19;4975449;28;20483;-82
2021/09/12 02:04:15;;;;;;;8.63;3.80;;;;;;;12.59;100.00;99228.34;4974609;28;20050;-82
2021/09/12 02:06:42;;;;;;;8.95;4.30;;;;;;;12.71;100.00;99262.22;4975519;28;20484;-82
2021/09/12 02:09:16;;;;;;;6.30;3.75;;;;;;;12.54;100.00;99239.84;4974592;28;20054;-81
2021/09/12 02:12:17;;;;;;;4.80;3.38;;;;;;;12.62;100.00;99263.41;4974631;28;20322;-82
2021/09/12 02:14:50;;;;;;;9.60;3.97;;;;;;;12.40;100.00;99240.72;4977688;28;20046;-82
2021/09/12 02:17:23;;;;;;;6.85;3.95;;;;;;;12.34;100.00;99253.25;4977929;28;20055;-82
2021/09/12 02:19:53;;;;;;;5.55;3.47;;;;;;;12.36;100.00;99247.59;4977503;28;20051;-82
2021/09/12 02:22:30;;;;;;;4.47;3.42;;;;;;;12.31;100.00;99250.09;4993649;28;20459;-81
2021/09/12 02:24:58;;;;;;;4.63;3.83;;;;;;;12.31;100.00;99237.28;4989352;28;20054;-82
2021/09/12 02:27:26;;;;;;;12.70;3.75;;;;;;;12.37;100.00;99252.91;4974991;28;20055;-82
2021/09/12 02:30:00;;;;;;;6.55;3.25;;;;;;;12.23;100.00;99242.88;4973899;28;20113;-82
2021/09/12 02:32:27;;;;;;;6.72;3.80;;;;;;;12.32;100.00;99216.34;4973133;28;20062;-82
2021/09/12 02:35:03;;;;;;;14.75;5.78;;;;;;;12.28;100.00;99226.78;4977269;28;20054;-82
2021/09/12 02:37:34;;;;;;;10.52;4.65;;;;;;;12.27;100.00;99224.25;4974555;28;20485;-82
2021/09/12 02:40:09;;;;;;;11.90;3.85;;;;;;;12.26;100.00;99233.47;4980080;28;20051;-82
2021/09/12 02:42:38;;;;;;;7.45;4.18;;;;;;;12.16;100.00;99245.56;4974248;28;20051;-82
2021/09/12 02:45:06;;;;;;;9.27;4.28;;;;;;;12.10;100.00;99240.00;4978788;28;20047;-81
2021/09/12 02:47:33;;;;;;;7.47;3.63;;;;;;;12.00;100.00;99233.00;4978478;28;20080;-82
2021/09/12 02:50:00;;;;;;;5.03;3.40;;;;;;;12.10;100.00;99240.00;4976058;28;20057;-82
2021/09/12 02:52:27;;;;;;;4.97;3.88;;;;;;;12.25;100.00;99248.13;4975346;28;20691;-82
2021/09/12 02:54:54;;;;;;;10.32;5.00;;;;;;;12.22;100.00;99246.63;4974607;28;20062;-83
2021/09/12 02:57:21;;;;;;;6.10;4.43;;;;;;;12.06;100.00;99225.06;4973854;28;20054;-82
2021/09/12 02:59:49;;;;;;;6.43;4.82;;;;;;;11.99;100.00;99246.81;4974316;28;20047;-82
2021/09/12 03:02:16;;;;;;;7.43;4.53;;;;;;;11.98;100.00;99240.53;4972143;28;20486;-82
2021/09/12 03:04:42;;;;;;;9.15;3.67;;;;;;;11.91;100.00;99215.06;4972142;28;20483;-82
2021/09/12 03:07:09;;;;;;;7.75;4.45;;;;;;;12.06;100.00;99245.00;4972010;28;20105;-83
2021/09/12 03:09:36;;;;;;;5.85;3.92;;;;;;;12.04;100.00;99250.66;4974241;28;20511;-82
2021/09/12 03:12:03;;;;;;;7.80;3.90;;;;;;;12.09;100.00;99241.91;4974318;28;20062;-82
2021/09/12 03:14:30;;;;;;;5.78;4.15;;;;;;;12.07;100.00;99246.69;4973999;28;20078;-82
2021/09/12 03:16:58;;;;;;;4.43;4.03;;;;;;;11.99;100.00;99241.38;4974301;28;20117;-82
2021/09/12 03:19:25;;;;;;;6.13;4.40;;;;;;;12.13;100.00;99247.78;4974324;28;20055;-82
2021/09/12 03:21:52;;;;;;;12.23;4.93;;;;;;;12.15;100.00;99248.44;4973910;28;20071;-83
2021/09/12 03:24:18;;;;;;;20.63;5.50;;;;;;;12.15;100.00;99248.44;4974050;28;20122;-82
2021/09/12 03:26:45;;;;;;;33.00;6.22;;;;;;;12.13;100.00;99234.16;4970050;28;20569;-82
2021/09/12 03:29:12;;;;;;;53.35;7.20;;;;;;;12.25;100.00;99232.63;4974693;28;20535;-82
2021/09/12 03:31:39;;;;;;;74.45;8.25;;;;;;;12.28;100.00;99218.59;4990773;28;20050;-83
2021/09/12 03:34:07;;;;;;;67.43;7.75;;;;;;;12.28;100.00;99234.13;4993696;28;20113;-83
2021/09/12 03:36:34;;;;;;;121.57;8.38;;;;;;;12.29;100.00;99239.38;4992543;28;20490;-82
2021/09/12 03:39:00;;;;;;;115.57;8.65;;;;;;;12.29;100.00;99225.75;4992006;28;20462;-82
2021/09/12 03:41:27;;;;;;;140.25;10.02;;;;;;;12.31;100.00;99225.56;4973925;28;20109;-82
2021/09/12 03:43:55;;;;;;;147.30;12.75;;;;;;;12.39;100.00;99225.44;4973855;28;20047;-82
2021/09/12 03:46:22;;;;;;;84.40;9.05;;;;;;;12.45;100.00;99230.09;4972756;28;20071;-82
2021/09/12 03:48:49;;;;;;;57.35;8.00;;;;;;;12.45;100.00;99223.78;4972770;28;20553;-83
2021/09/12 03:51:17;;;;;;;139.55;10.05;;;;;;;12.52;100.00;99230.97;4973546;28;20043;-83
2021/09/12 03:53:44;;;;;;;145.45;10.50;;;;;;;12.56;100.00;99221.38;4973636;28;20050;-82
2021/09/12 03:56:11;;;;;;;79.28;8.65;;;;;;;12.53;100.00;99210.03;4973120;28;20063;-82
2021/09/12 03:58:39;;;;;;;92.18;8.75;;;;;;;12.47;100.00;99216.28;4973119;28;20058;-83
2021/09/12 04:01:06;;;;;;;149.88;11.80;;;;;;;12.51;100.00;99234.78;4973472;28;20058;-83
2021/09/12 04:03:32;;;;;;;113.72;9.27;;;;;;;12.52;100.00;99235.59;4972948;28;20109;-82
2021/09/12 04:05:59;;;;;;;40.65;8.05;;;;;;;12.47;100.00;99214.38;4976342;28;20050;-82
2021/09/12 04:08:27;;;;;;;159.38;11.02;;;;;;;12.55;100.00;99218.84;4973713;28;20109;-82
2021/09/12 04:10:54;;;;;;;64.53;8.23;;;;;;;12.53;100.00;99226.41;4973307;28;20491;-82
2021/09/12 04:13:21;;;;;;;170.07;9.82;;;;;;;12.62;100.00;99227.09;4973307;28;20471;-82
2021/09/12 04:15:47;;;;;;;95.78;8.90;;;;;;;12.53;100.00;99210.03;4972642;28;20056;-82
2021/09/12 04:18:16;;;;;;;33.95;7.07;;;;;;;12.57;100.00;99231.25;4973298;28;20562;-82
2021/09/12 04:20:42;;;;;;;80.47;7.30;;;;;;;12.58;100.00;99223.91;4973260;28;20055;-82
2021/09/12 04:23:09;;;;;;;50.10;6.50;;;;;;;12.63;100.00;99224.19;4972787;28;20055;-82
2021/09/12 04:25:37;;;;;;;44.67;7.68;;;;;;;12.66;100.00;99225.66;4973353;28;20047;-82
2021/09/12 04:28:04;;;;;;;27.73;7.22;;;;;;;12.60;100.00;99223.72;4973262;28;20051;-82
2021/09/12 04:30:31;;;;;;;58.90;7.97;;;;;;;12.44;100.00;99214.78;4956250;28;20408;-82
2021/09/12 04:32:58;;;;;;;59.95;7.70;;;;;;;12.62;100.00;99227.94;4972560;28;20105;-82
2021/09/12 04:35:25;;;;;;;72.97;8.20;;;;;;;12.69;100.00;99234.31;4972547;28;20483;-82
2021/09/12 04:37:52;;;;;;;100.80;8.35;;;;;;;12.68;100.00;99226.31;4973228;28;20491;-82
2021/09/12 04:40:19;;;;;;;93.53;8.32;;;;;;;12.58;100.00;99229.38;4975270;28;20521;-82
2021/09/12 04:42:47;;;;;;;71.50;8.00;;;;;;;12.68;100.00;99242.69;4972636;28;20047;-82
2021/09/12 04:45:14;;;;;;;59.10;7.60;;;;;;;12.65;100.00;99226.72;4972780;28;20407;-82
2021/09/12 04:47:41;;;;;;;36.47;7.25;;;;;;;12.67;100.00;99230.91;4972977;28;20050;-82
2021/09/12 04:50:08;;;;;;;60.13;7.00;;;;;;;12.71;100.00;99237.66;4975267;28;20051;-82
2021/09/12 04:52:35;;;;;;;33.55;5.75;;;;;;;12.62;100.00;99232.56;4977054;28;20055;-82
2021/09/12 04:55:02;;;;;;;35.40;6.70;;;;;;;12.70;100.00;99243.31;4976313;28;20523;-82
2021/09/12 04:57:29;;;;;;;49.42;7.47;;;;;;;12.65;100.00;99237.63;4976766;28;20101;-82
2021/09/12 04:59:58;;;;;;;34.30;6.70;;;;;;;12.57;100.00;99242.16;4980203;28;20051;-82
2021/09/12 05:02:25;;;;;;;28.73;7.03;;;;;;;12.52;100.00;99230.16;4976294;28;20054;-82
2021/09/12 05:04:52;;;;;;;18.02;6.22;;;;;;;12.56;100.00;99236.91;4976350;28;20059;-82
2021/09/12 05:07:18;;;;;;;22.40;6.45;;;;;;;12.72;100.00;99231.19;4976010;28;20046;-82
2021/09/12 05:09:45;;;;;;;23.83;6.22;;;;;;;12.80;100.00;99248.44;4976406;28;20050;-82
2021/09/12 05:12:12;;;;;;;22.08;6.82;;;;;;;12.60;100.00;99240.94;4976972;28;20059;-82
2021/09/12 05:14:39;;;;;;;21.15;7.80;;;;;;;12.60;100.00;99246.41;4976362;28;20058;-82
2021/09/12 05:17:07;;;;;;;11.32;6.13;;;;;;;12.52;100.00;99250.06;4974679;28;20054;-82
2021/09/12 05:19:34;;;;;;;10.30;5.63;;;;;;;12.57;100.00;99249.50;4977552;28;20057;-82
2021/09/12 05:22:01;;;;;;;7.68;5.47;;;;;;;12.58;100.00;99251.19;4977757;28;20054;-82
2021/09/12 05:24:27;;;;;;;8.38;5.05;;;;;;;12.66;100.00;99245.59;4975491;28;20047;-81
2021/09/12 05:26:59;;;;;;;11.10;4.95;;;;;;;12.75;100.00;99251.75;4975303;28;20051;-82
2021/09/12 05:29:26;;;;;;;9.80;4.47;;;;;;;12.80;100.00;99249.28;4971882;28;20064;-82
2021/09/12 05:31:53;;;;;;;5.80;3.42;;;;;;;12.79;100.00;99244.03;4973966;28;20097;-82
2021/09/12 05:34:21;;;;;;;3.88;3.17;;;;;;;12.75;100.00;99249.00;4969880;28;20459;-82
2021/09/12 05:36:48;;;;;;;5.85;4.05;;;;;;;12.74;100.00;99253.63;4964994;28;20098;-82
2021/09/12 05:39:14;;;;;;;5.88;3.42;;;;;;;12.67;100.00;99254.63;4970786;28;20403;-82
2021/09/12 05:41:41;;;;;;;7.10;3.80;;;;;;;12.75;100.00;99260.78;4972225;28;20499;-81
2021/09/12 05:44:08;;;;;;;4.00;3.40;;;;;;;12.77;100.00;99268.78;4960659;28;20478;-82
2021/09/12 05:46:36;;;;;;;6.13;3.30;;;;;;;12.89;100.00;99280.00;4978270;28;20471;-82
2021/09/12 05:49:03;;;;;;;4.38;3.53;;;;;;;12.88;100.00;99265.50;4966903;28;20127;-82
2021/09/12 05:51:32;;;;;;;4.13;3.40;;;;;;;12.88;100.00;99262.75;4969668;28;20385;-82
2021/09/12 05:53:58;;;;;;;4.28;3.33;;;;;;;13.01;100.00;99262.03;4973602;28;20051;-82
2021/09/12 05:56:25;;;;;;;4.55;3.60;;;;;;;12.93;100.00;99243.94;4974859;28;20055;-81
2021/09/12 05:58:52;;;;;;;4.00;3.28;;;;;;;13.01;100.00;99251.13;4974828;28;20123;-82
2021/09/12 06:01:19;;;;;;;6.32;4.38;;;;;;;13.21;100.00;99269.53;4966963;28;20487;-82
2021/09/12 06:03:46;;;;;;;4.28;3.70;;;;;;;13.34;100.00;99266.06;4974059;28;20051;-82
2021/09/12 06:06:13;;;;;;;5.63;4.60;;;;;;;13.39;100.00;99266.31;4974571;28;20135;-81
2021/09/12 06:08:41;;;;;;;4.70;3.83;;;;;;;13.54;100.00;99271.66;4958209;28;20042;-82
2021/09/12 06:11:10;;;;;;;6.82;4.10;;;;;;;13.48;100.00;99261.53;4976434;28;20113;-82
2021/09/12 06:13:39;;;;;;;5.15;3.75;;;;;;;13.55;100.00;99262.41;4972313;28;20475;-82
2021/09/12 06:16:07;;;;;;;4.37;3.73;;;;;;;13.60;100.00;99260.75;4966587;28;20089;-82
2021/09/12 06:18:35;;;;;;;10.32;3.88;;;;;;;13.56;100.00;99262.19;4975776;28;20131;-82
2021/09/12 06:21:03;;;;;;;4.47;3.80;;;;;;;13.41;100.00;99258.75;4977042;28;20053;-82
2021/09/12 06:23:30;;;;;;;4.93;3.83;;;;;;;13.45;100.00;99258.16;4973792;28;20139;-82
2021/09/12 06:25:59;;;;;;;4.72;3.80;;;;;;;13.54;100.00;99264.28;4970934;28;20080;-82
2021/09/12 06:28:25;;;;;;;5.50;3.95;;;;;;;13.43;100.00;99243.88;4960749;28;20039;-82
2021/09/12 06:30:52;;;;;;;4.10;3.58;;;;;;;13.58;100.00;99242.91;4976874;28;20062;-82
2021/09/12 06:33:19;;;;;;;5.30;3.67;;;;;;;13.78;100.00;99254.75;4971706;28;20051;-82
2021/09/12 06:35:46;;;;;;;4.72;3.72;;;;;;;13.84;100.00;99238.59;4969016;28;20226;-82
2021/09/12 06:38:13;;;;;;;5.18;3.80;;;;;;;14.15;100.00;99247.09;4971317;28;20058;-81
2021/09/12 06:40:40;;;;;;;4.38;3.20;;;;;;;14.33;100.00;99253.88;4973431;28;20059;-82
2021/09/12 06:43:08;;;;;;;8.60;3.78;;;;;;;14.49;100.00;99258.09;4975417;28;20043;-82
2021/09/12 06:45:35;;;;;;;4.05;3.28;;;;;;;14.55;100.00;99240.84;4975045;28;20483;-82
2021/09/12 06:48:03;;;;;;;4.43;3.92;;;;;;;14.61;100.00;99261.94;4970780;28;20096;-82
2021/09/12 06:50:30;;;;;;;6.25;4.18;;;;;;;14.54;100.00;99277.47;4973464;28;20474;-82
2021/09/12 06:52:57;;;;;;;5.10;4.20;;;;;;;14.70;100.00;99276.25;4970162;28;20495;-82
2021/09/12 06:55:24;;;;;;;4.07;3.63;;;;;;;14.65;100.00;99267.84;4970724;28;20090;-82
2021/09/12 06:57:51;;;;;;;4.65;4.15;;;;;;;14.57;100.00;99273.47;4965465;28;20471;-82
2021/09/12 07:00:19;;;;;;;5.38;4.10;;;;;;;14.49;100.00;99271.78;4966561;28;20058;-82
2021/09/12 07:02:46;;;;;;;4.60;4.00;;;;;;;14.37;100.00;99257.88;4975013;28;20054;-82
2021/09/12 07:05:15;;;;;;;6.10;3.85;;;;;;;14.30;100.00;99260.59;4966807;28;20571;-82
2021/09/12 07:07:42;;;;;;;5.85;4.25;;;;;;;14.34;100.00;99258.28;4972675;28;20604;-82
2021/09/12 07:10:10;;;;;;;4.65;4.15;;;;;;;14.48;100.00;99278.28;4972665;28;20443;-82
2021/09/12 07:12:37;;;;;;;5.22;4.57;;;;;;;14.79;100.00;99265.97;4962946;28;20091;-82
2021/09/12 07:15:04;;;;;;;5.45;4.60;;;;;;;15.10;100.00;99259.84;4962230;28;20055;-82
2021/09/12 07:17:33;;;;;;;5.78;4.13;;;;;;;14.92;100.00;99260.50;4969775;28;20529;-82
2021/09/12 07:19:59;;;;;;;5.20;4.45;;;;;;;14.78;100.00;99276.03;4973585;28;20050;-82
2021/09/12 07:22:26;;;;;;;5.75;4.95;;;;;;;14.96;100.00;99280.06;4973631;28;20612;-82
2021/09/12 07:24:53;;;;;;;5.00;4.50;;;;;;;15.25;100.00;99275.19;4973029;28;20253;-82
2021/09/12 07:27:20;;;;;;;4.82;4.32;;;;;;;15.47;100.00;99295.81;4966427;28;20522;-81
2021/09/12 07:29:46;;;;;;;4.82;3.97;;;;;;;15.52;100.00;99285.06;4972225;28;20475;-82
2021/09/12 07:32:13;;;;;;;4.43;3.83;;;;;;;15.56;99.74;99290.94;4974888;28;20050;-82
2021/09/12 07:34:41;;;;;;;4.32;3.92;;;;;;;15.45;100.00;99295.19;4974045;28;20054;-82
2021/09/12 07:37:09;;;;;;;4.47;3.95;;;;;;;15.58;100.00;99289.69;4974107;28;20058;-83
2021/09/12 07:39:36;;;;;;;4.40;3.58;;;;;;;15.50;99.42;99305.50;4973232;28;20132;-82
2021/09/12 07:42:06;;;;;;;4.90;4.20;;;;;;;15.75;100.00;99298.28;4961715;28;20055;-82
2021/09/12 07:44:33;;;;;;;5.72;4.55;;;;;;;15.77;100.00;99298.06;4968252;28;20051;-84
2021/09/12 07:47:01;;;;;;;5.45;4.22;;;;;;;15.71;98.78;99312.63;4974573;28;20050;-82
2021/09/12 07:49:28;;;;;;;4.78;4.15;;;;;;;15.54;98.90;99284.84;4959130;28;20075;-82
2021/09/12 07:51:57;;;;;;;5.20;4.20;;;;;;;15.61;98.23;99290.31;4956789;28;20047;-81
2021/09/12 07:54:30;;;;;;;6.50;4.68;;;;;;;16.20;96.68;99302.13;4966816;28;20051;-81
2021/09/12 07:56:56;;;;;;;5.32;4.82;;;;;;;16.24;100.00;99311.63;4971226;28;20057;-81
2021/09/12 07:59:23;;;;;;;5.85;4.22;;;;;;;16.06;97.54;99294.00;4966969;28;20388;-82
2021/09/12 08:01:50;;;;;;;6.93;4.93;;;;;;;16.09;96.89;99304.53;4965415;28;20502;-82
2021/09/12 08:04:17;;;;;;;5.93;4.97;;;;;;;15.92;98.04;99325.25;4956946;28;20054;-82
2021/09/12 08:06:44;;;;;;;4.47;4.07;;;;;;;15.87;96.78;99303.97;4963839;28;20055;-81
2021/09/12 17:53:33;;;;;;;3.35;1.65;;;;;;;18.13;80.12;99032.00;5022826;27;1349508;-82
2021/09/12 17:56:01;;;;;;;1.88;1.48;;;;;;;18.06;80.04;99036.78;5056839;28;20136;-81
2021/09/12 17:58:28;;;;;;;1.77;1.67;;;;;;;18.00;80.67;99039.38;5061810;28;20518;-81
2021/09/12 18:00:55;;;;;;;6.22;1.70;;;;;;;17.93;81.20;99032.31;5070265;28;20061;-81
2021/09/12 18:03:21;;;;;;;3.08;1.92;;;;;;;17.94;81.79;99042.25;5070551;28;20053;-80
2021/09/12 18:05:52;;;;;;;2.28;1.80;;;;;;;17.84;81.86;99038.16;5052344;28;20045;-81
2021/09/12 18:08:21;;;;;;;1.40;1.30;;;;;;;17.83;82.33;99035.63;5069906;28;20068;-81
2021/09/12 18:10:58;;;;;;;1.70;1.52;;;;;;;17.86;82.54;99041.47;5070061;28;20076;-82
2021/09/12 18:13:24;;;;;;;2.08;1.65;;;;;;;17.60;82.94;99034.50;5062992;28;20057;-81
2021/09/12 18:15:55;;;;;;;3.05;1.40;;;;;;;17.55;83.72;99045.31;5057451;28;20041;-81
2021/09/12 18:18:23;;;;;;;3.10;2.20;;;;;;;17.24;84.71;99043.66;5057149;28;20048;-81
2021/09/12 18:20:50;;;;;;;2.28;1.80;;;;;;;17.17;85.86;99057.47;5057714;28;20053;-81
2021/09/12 18:23:17;;;;;;;2.63;1.83;;;;;;;17.13;85.32;99045.25;5053883;28;20049;-81
2021/09/12 18:25:47;;;;;;;2.78;1.80;;;;;;;17.28;85.51;99066.84;5050031;28;20524;-81
2021/09/12 18:28:14;;;;;;;5.43;1.90;;;;;;;17.17;85.26;99055.56;5049498;28;20497;-81
2021/09/12 18:30:42;;;;;;;3.05;1.88;;;;;;;17.03;85.85;99051.31;5052044;28;20128;-81
2021/09/12 18:33:09;;;;;;;1.50;1.40;;;;;;;16.96;86.38;99065.09;5065186;28;20045;-82
2021/09/12 18:35:36;;;;;;;3.63;1.75;;;;;;;16.81;87.46;99067.38;5068917;28;20515;-84
2021/09/12 18:38:03;;;;;;;3.38;1.70;;;;;;;16.75;87.38;99062.78;5067307;28;20430;-81
2021/09/12 18:40:30;;;;;;;2.10;1.90;;;;;;;16.82;87.35;99069.06;5069817;28;20044;-81
2021/09/12 18:42:58;;;;;;;2.38;1.75;;;;;;;16.69;87.74;99069.19;5069488;28;20052;-82
2021/09/12 18:45:25;;;;;;;6.50;1.85;;;;;;;16.79;87.26;99088.72;5068432;28;20064;-82
2021/09/12 18:47:52;;;;;;;3.80;1.80;;;;;;;16.64;87.65;99073.44;5069015;28;20045;-82
2021/09/12 18:50:19;;;;;;;3.47;2.55;;;;;;;16.48;88.02;99070.47;5050992;28;20057;-82
2021/09/12 18:52:45;;;;;;;2.78;2.33;;;;;;;16.34;89.22;99088.94;5049010;28;20053;-82
2021/09/12 18:55:13;;;;;;;2.42;2.15;;;;;;;16.40;88.32;99066.09;5049170;28;20041;-82
2021/09/12 18:57:40;;;;;;;2.90;2.10;;;;;;;16.40;88.70;99105.34;5049101;28;20404;-82
2021/09/12 19:00:10;;;;;;;4.65;2.10;;;;;;;16.32;88.46;99085.56;5048694;28;20404;-81
2021/09/12 19:02:37;;;;;;;2.67;2.05;;;;;;;16.14;88.60;99073.50;5044751;28;20049;-81
2021/09/12 19:05:05;;;;;;;2.20;1.67;;;;;;;16.08;89.53;99086.19;5045527;28;20053;-82
2021/09/12 19:07:31;;;;;;;2.60;1.67;;;;;;;15.88;90.79;99094.56;5056231;28;20049;-82
2021/09/12 19:09:58;;;;;;;4.70;1.95;;;;;;;15.78;91.12;99096.97;5055335;28;20057;-82
2021/09/12 19:12:25;;;;;;;3.17;1.90;;;;;;;15.64;91.65;99087.94;5054840;28;20052;-82
2021/09/12 19:14:52;;;;;;;2.85;1.70;;;;;;;15.54;92.30;99095.81;5055203;28;20053;-82
2021/09/12 19:17:22;;;;;;;3.25;1.75;;;;;;;15.81;90.92;99092.94;5055498;28;20045;-82
2021/09/12 19:19:50;;;;;;;4.47;1.95;;;;;;;15.62;91.84;99100.19;5054760;28;20084;-82
2021/09/12 19:22:16;;;;;;;3.33;1.85;;;;;;;15.66;91.41;99105.00;5044453;28;20080;-82
2021/09/12 19:24:43;;;;;;;4.35;2.10;;;;;;;15.77;91.30;99116.34;5033215;28;20050;-83
2021/09/12 19:27:10;;;;;;;2.63;1.80;;;;;;;15.65;91.01;99119.75;5038315;28;20049;-82
2021/09/12 19:29:37;;;;;;;2.13;1.63;;;;;;;15.45;91.82;99099.84;5054941;28;20045;-82
2021/09/12 19:32:05;;;;;;;2.33;1.92;;;;;;;15.27;92.48;99101.41;5055163;28;20095;-82
2021/09/12 19:34:33;;;;;;;2.10;1.90;;;;;;;15.26;92.84;99112.56;5054605;28;20052;-82
2021/09/12 19:37:00;;;;;;;2.15;1.95;;;;;;;15.17;93.22;99107.31;5054553;28;20051;-82
2021/09/12 19:39:27;;;;;;;4.63;1.77;;;;;;;15.26;93.02;99113.41;5054638;28;20459;-82
2021/09/12 19:41:54;;;;;;;3.45;1.90;;;;;;;15.30;92.63;99114.66;5047404;28;20056;-81
2021/09/12 19:44:21;;;;;;;2.10;1.83;;;;;;;15.26;92.22;99099.72;5045836;28;20163;-81
2021/09/12 19:46:48;;;;;;;3.25;2.00;;;;;;;15.24;92.19;99120.19;5044004;28;20045;-82
2021/09/12 19:49:15;;;;;;;2.22;1.98;;;;;;;15.12;93.12;99123.56;5034252;28;20076;-81
2021/09/12 19:51:44;;;;;;;3.95;2.22;;;;;;;14.93;93.59;99108.03;5050055;28;20049;-81
2021/09/12 19:54:12;;;;;;;3.15;2.20;;;;;;;14.89;94.24;99106.78;5034614;28;20049;-81
2021/09/12 19:56:39;;;;;;;5.57;2.70;;;;;;;14.93;94.29;99132.69;5034501;28;20140;-81
2021/09/12 19:59:06;;;;;;;4.88;2.20;;;;;;;14.79;94.38;99109.97;5034964;28;20062;-81
2021/09/12 20:01:33;;;;;;;3.42;2.10;;;;;;;14.74;94.97;99121.56;5040486;28;20056;-81
2021/09/12 20:04:00;;;;;;;4.70;2.63;;;;;;;14.73;95.44;99119.88;5053801;28;20095;-81
2021/09/12 20:06:27;;;;;;;3.58;2.33;;;;;;;14.71;95.47;99127.47;5037872;28;20072;-81
2021/09/12 20:08:58;;;;;;;2.42;1.83;;;;;;;14.83;94.62;99119.44;5044752;28;20123;-81
2021/09/12 20:11:25;;;;;;;3.28;1.90;;;;;;;14.87;94.64;99137.09;5046794;28;20048;-81
2021/09/12 20:13:52;;;;;;;3.08;2.28;;;;;;;14.80;94.17;99119.88;5039658;28;20140;-82
2021/09/12 20:16:20;;;;;;;2.22;1.90;;;;;;;14.81;94.54;99130.63;5032517;28;20065;-81
2021/09/12 20:18:51;;;;;;;2.47;1.92;;;;;;;14.66;94.52;99124.50;5039965;28;20081;-81
2021/09/12 20:21:21;;;;;;;3.90;1.95;;;;;;;14.45;95.04;99120.94;5045881;28;20134;-81
2021/09/12 20:23:48;;;;;;;2.83;2.20;;;;;;;14.45;95.46;99142.81;5046366;28;20171;-81
2021/09/12 20:26:16;;;;;;;2.38;2.17;;;;;;;14.33;95.38;99122.59;5039342;28;20810;-81
2021/09/12 20:28:43;;;;;;;3.22;2.10;;;;;;;14.45;95.67;99139.22;5038358;28;20049;-81
2021/09/12 20:31:10;;;;;;;2.53;1.95;;;;;;;14.63;95.22;99155.88;5038378;28;20049;-81
2021/09/12 20:33:37;;;;;;;4.22;1.85;;;;;;;14.56;95.08;99140.47;5034329;28;20041;-81
2021/09/12 20:36:08;;;;;;;3.55;2.58;;;;;;;14.51;94.46;99136.50;5040602;28;20130;-81
2021/09/12 20:38:35;;;;;;;2.88;2.30;;;;;;;14.53;94.73;99139.03;5046979;28;20496;-81
2021/09/12 20:41:02;;;;;;;2.97;1.98;;;;;;;14.41;94.97;99127.88;5035638;28;20053;-81
2021/09/12 20:43:31;;;;;;;3.95;2.13;;;;;;;14.30;95.44;99126.63;5033933;28;20046;-81
2021/09/12 20:46:00;;;;;;;3.78;2.42;;;;;;;14.24;96.07;99145.75;5043499;28;20115;-81
2021/09/12 20:48:30;;;;;;;3.90;2.00;;;;;;;14.08;96.77;99120.50;5039558;28;20061;-80
2021/09/12 20:50:59;;;;;;;3.17;2.38;;;;;;;14.06;97.13;99133.53;5040877;28;20049;-80
2021/09/12 20:53:26;;;;;;;2.45;1.92;;;;;;;14.35;95.78;99150.59;5043502;28;20048;-80
2021/09/12 20:55:52;;;;;;;2.47;2.05;;;;;;;14.18;95.73;99127.44;5047765;28;20056;-81
2021/09/12 20:58:19;;;;;;;4.00;2.35;;;;;;;14.23;96.16;99136.69;5052781;28;20055;-80
2021/09/12 21:00:47;;;;;;;2.72;2.17;;;;;;;14.34;95.09;99144.25;5037226;28;20049;-81
2021/09/12 21:03:14;;;;;;;4.10;2.13;;;;;;;14.03;95.43;99141.28;5047564;28;20559;-82
2021/09/12 21:09:05;;;;;;;3.45;2.30;;;;;;;13.74;97.57;99146.91;5053326;28;20044;-81
2021/09/12 21:11:32;;;;;;;3.45;2.35;;;;;;;13.58;97.85;99125.47;5045653;28;20120;-81
2021/09/12 21:14:02;;;;;;;3.25;2.35;;;;;;;13.51;98.51;99139.06;5042957;28;20577;-81
2021/09/12 21:16:40;;;;;;;2.95;2.10;;;;;;;13.42;99.17;99130.22;5041802;28;20052;-83
2021/09/12 21:19:10;;;;;;;4.32;2.25;;;;;;;13.59;98.66;99138.03;5049281;28;20049;-81
2021/09/12 21:21:45;;;;;;;3.65;2.17;;;;;;;13.70;98.14;99148.38;5052448;28;20060;-81
2021/09/12 21:24:23;;;;;;;3.47;2.30;;;;;;;13.69;98.15;99138.50;5046019;28;20555;-81